sensor_id;sensor_type;location;lat;lon;timestamp;temperature;humidity
41722;DHT22;27407;24.142;-110.310;2023-06-04T00:01:03;41.20;58.70
41722;DHT22;27407;24.142;-110.310;2023-06-04T00:03:31;40.10;58.90
41722;DHT22;27407;24.142;-110.310;2023-06-04T00:05:58;39.70;59.60
41722;DHT22;27407;24.142;-110.310;2023-06-04T00:08:25;40.40;58.90
41722;DHT22;27407;24.142;-110.310;2023-06-04T00:10:52;40.10;58.40
41722;DHT22;27407;24.142;-110.310;2023-06-04T00:13:18;40.00;58.80
41722;DHT22;27407;24.142;-110.310;2023-06-04T00:15:45;40.00;58.50
41722;DHT22;27407;24.142;-110.310;2023-06-04T00:18:12;40.70;57.90
41722;DHT22;27407;24.142;-110.310;2023-06-04T00:20:39;40.70;58.00
41722;DHT22;27407;24.142;-110.310;2023-06-04T00:23:06;40.70;57.80
41722;DHT22;27407;24.142;-110.310;2023-06-04T00:25:33;39.20;59.50
41722;DHT22;27407;24.142;-110.310;2023-06-04T00:27:59;38.80;59.20
41722;DHT22;27407;24.142;-110.310;2023-06-04T00:30:26;38.40;60.30
41722;DHT22;27407;24.142;-110.310;2023-06-04T00:32:53;39.20;62.10
41722;DHT22;27407;24.142;-110.310;2023-06-04T00:35:19;39.50;63.30
41722;DHT22;27407;24.142;-110.310;2023-06-04T00:37:46;39.40;63.80
41722;DHT22;27407;24.142;-110.310;2023-06-04T00:40:13;39.30;63.70
41722;DHT22;27407;24.142;-110.310;2023-06-04T00:42:40;39.50;63.60
41722;DHT22;27407;24.142;-110.310;2023-06-04T00:45:07;39.20;64.00
41722;DHT22;27407;24.142;-110.310;2023-06-04T00:47:36;39.10;64.20
41722;DHT22;27407;24.142;-110.310;2023-06-04T00:50:03;38.80;64.50
41722;DHT22;27407;24.142;-110.310;2023-06-04T00:52:29;38.20;65.40
41722;DHT22;27407;24.142;-110.310;2023-06-04T00:54:56;37.60;66.20
41722;DHT22;27407;24.142;-110.310;2023-06-04T00:57:23;37.50;66.40
41722;DHT22;27407;24.142;-110.310;2023-06-04T00:59:50;37.40;66.50
41722;DHT22;27407;24.142;-110.310;2023-06-04T01:02:22;37.10;66.80
41722;DHT22;27407;24.142;-110.310;2023-06-04T01:07:56;36.70;67.30
41722;DHT22;27407;24.142;-110.310;2023-06-04T01:10:23;36.50;67.60
41722;DHT22;27407;24.142;-110.310;2023-06-04T01:12:50;36.10;68.30
41722;DHT22;27407;24.142;-110.310;2023-06-04T01:15:17;35.70;68.90
41722;DHT22;27407;24.142;-110.310;2023-06-04T01:17:53;34.90;70.00
41722;DHT22;27407;24.142;-110.310;2023-06-04T01:23:25;33.90;72.40
41722;DHT22;27407;24.142;-110.310;2023-06-04T01:26:03;33.50;73.00
41722;DHT22;27407;24.142;-110.310;2023-06-04T01:28:32;33.00;73.90
41722;DHT22;27407;24.142;-110.310;2023-06-04T01:31:00;32.80;74.60
41722;DHT22;27407;24.142;-110.310;2023-06-04T01:33:28;32.40;75.60
41722;DHT22;27407;24.142;-110.310;2023-06-04T01:35:55;32.20;75.90
41722;DHT22;27407;24.142;-110.310;2023-06-04T01:38:22;31.90;76.80
41722;DHT22;27407;24.142;-110.310;2023-06-04T01:40:48;31.40;77.70
41722;DHT22;27407;24.142;-110.310;2023-06-04T01:43:16;30.90;78.70
41722;DHT22;27407;24.142;-110.310;2023-06-04T01:45:43;30.60;80.00
41722;DHT22;27407;24.142;-110.310;2023-06-04T01:48:10;30.50;80.10
41722;DHT22;27407;24.142;-110.310;2023-06-04T01:50:37;30.20;80.80
41722;DHT22;27407;24.142;-110.310;2023-06-04T01:53:03;30.00;81.40
41722;DHT22;27407;24.142;-110.310;2023-06-04T01:55:30;30.00;81.70
41722;DHT22;27407;24.142;-110.310;2023-06-04T01:57:59;29.70;82.50
41722;DHT22;27407;24.142;-110.310;2023-06-04T02:00:27;29.60;83.10
41722;DHT22;27407;24.142;-110.310;2023-06-04T02:02:54;29.40;83.90
41722;DHT22;27407;24.142;-110.310;2023-06-04T02:05:22;29.00;84.70
41722;DHT22;27407;24.142;-110.310;2023-06-04T02:07:49;28.90;85.60
41722;DHT22;27407;24.142;-110.310;2023-06-04T02:10:17;28.80;86.30
41722;DHT22;27407;24.142;-110.310;2023-06-04T02:13:01;28.30;87.60
41722;DHT22;27407;24.142;-110.310;2023-06-04T02:15:31;28.10;88.40
41722;DHT22;27407;24.142;-110.310;2023-06-04T02:18:00;27.90;89.60
41722;DHT22;27407;24.142;-110.310;2023-06-04T02:20:42;27.70;90.10
41722;DHT22;27407;24.142;-110.310;2023-06-04T02:23:10;27.60;90.50
41722;DHT22;27407;24.142;-110.310;2023-06-04T02:25:37;27.30;91.10
41722;DHT22;27407;24.142;-110.310;2023-06-04T02:28:03;27.10;91.70
41722;DHT22;27407;24.142;-110.310;2023-06-04T02:30:30;26.70;92.20
41722;DHT22;27407;24.142;-110.310;2023-06-04T02:32:57;26.80;92.60
41722;DHT22;27407;24.142;-110.310;2023-06-04T02:35:28;26.60;93.00
41722;DHT22;27407;24.142;-110.310;2023-06-04T02:37:54;26.50;93.20
41722;DHT22;27407;24.142;-110.310;2023-06-04T02:40:25;26.60;93.40
41722;DHT22;27407;24.142;-110.310;2023-06-04T02:42:55;26.50;93.80
41722;DHT22;27407;24.142;-110.310;2023-06-04T02:45:25;26.40;94.10
41722;DHT22;27407;24.142;-110.310;2023-06-04T02:47:52;26.30;94.40
41722;DHT22;27407;24.142;-110.310;2023-06-04T02:50:19;26.20;94.70
41722;DHT22;27407;24.142;-110.310;2023-06-04T02:52:46;26.20;95.00
41722;DHT22;27407;24.142;-110.310;2023-06-04T02:55:12;26.20;95.50
41722;DHT22;27407;24.142;-110.310;2023-06-04T02:57:40;25.90;96.00
41722;DHT22;27407;24.142;-110.310;2023-06-04T03:00:09;25.40;97.00
41722;DHT22;27407;24.142;-110.310;2023-06-04T03:02:46;25.50;97.60
41722;DHT22;27407;24.142;-110.310;2023-06-04T03:05:14;25.30;98.00
41722;DHT22;27407;24.142;-110.310;2023-06-04T03:07:44;25.10;98.80
41722;DHT22;27407;24.142;-110.310;2023-06-04T03:10:12;25.10;99.30
41722;DHT22;27407;24.142;-110.310;2023-06-04T03:12:39;25.20;99.60
41722;DHT22;27407;24.142;-110.310;2023-06-04T03:15:06;25.10;99.90
41722;DHT22;27407;24.142;-110.310;2023-06-04T03:17:33;24.90;99.90
41722;DHT22;27407;24.142;-110.310;2023-06-04T03:20:00;24.80;99.90
41722;DHT22;27407;24.142;-110.310;2023-06-04T03:22:27;24.80;99.90
41722;DHT22;27407;24.142;-110.310;2023-06-04T03:24:54;24.60;99.90
41722;DHT22;27407;24.142;-110.310;2023-06-04T03:27:21;24.60;99.90
41722;DHT22;27407;24.142;-110.310;2023-06-04T03:29:48;24.30;99.90
41722;DHT22;27407;24.142;-110.310;2023-06-04T03:32:14;24.30;99.90
41722;DHT22;27407;24.142;-110.310;2023-06-04T03:34:42;24.20;99.90
41722;DHT22;27407;24.142;-110.310;2023-06-04T03:37:09;24.10;99.90
41722;DHT22;27407;24.142;-110.310;2023-06-04T03:39:35;24.10;99.90
41722;DHT22;27407;24.142;-110.310;2023-06-04T03:42:02;24.10;99.90
41722;DHT22;27407;24.142;-110.310;2023-06-04T03:44:29;24.00;99.90
41722;DHT22;27407;24.142;-110.310;2023-06-04T03:46:56;24.00;99.90
41722;DHT22;27407;24.142;-110.310;2023-06-04T03:49:22;24.20;99.90
41722;DHT22;27407;24.142;-110.310;2023-06-04T03:51:49;24.00;99.90
41722;DHT22;27407;24.142;-110.310;2023-06-04T03:54:16;24.10;99.90
41722;DHT22;27407;24.142;-110.310;2023-06-04T03:56:46;24.00;99.90
41722;DHT22;27407;24.142;-110.310;2023-06-04T03:59:13;24.00;99.90
41722;DHT22;27407;24.142;-110.310;2023-06-04T04:01:40;23.90;99.90
41722;DHT22;27407;24.142;-110.310;2023-06-04T04:04:06;23.70;99.90
41722;DHT22;27407;24.142;-110.310;2023-06-04T04:06:33;23.70;99.90
41722;DHT22;27407;24.142;-110.310;2023-06-04T04:09:02;23.40;99.90
41722;DHT22;27407;24.142;-110.310;2023-06-04T04:11:29;23.40;99.90
41722;DHT22;27407;24.142;-110.310;2023-06-04T04:13:56;23.50;99.90
41722;DHT22;27407;24.142;-110.310;2023-06-04T04:16:24;23.40;99.90
41722;DHT22;27407;24.142;-110.310;2023-06-04T04:18:51;23.50;99.90
41722;DHT22;27407;24.142;-110.310;2023-06-04T04:21:18;23.50;99.90
41722;DHT22;27407;24.142;-110.310;2023-06-04T04:23:45;23.20;99.90
41722;DHT22;27407;24.142;-110.310;2023-06-04T04:26:12;23.20;99.90
41722;DHT22;27407;24.142;-110.310;2023-06-04T04:28:42;23.30;99.90
41722;DHT22;27407;24.142;-110.310;2023-06-04T04:31:14;23.10;99.90
41722;DHT22;27407;24.142;-110.310;2023-06-04T04:33:41;23.10;99.90
41722;DHT22;27407;24.142;-110.310;2023-06-04T04:36:09;23.00;99.90
41722;DHT22;27407;24.142;-110.310;2023-06-04T04:38:38;23.00;99.90
41722;DHT22;27407;24.142;-110.310;2023-06-04T04:41:06;23.00;99.90
41722;DHT22;27407;24.142;-110.310;2023-06-04T04:43:35;22.70;99.90
41722;DHT22;27407;24.142;-110.310;2023-06-04T04:46:03;22.70;99.90
41722;DHT22;27407;24.142;-110.310;2023-06-04T04:48:31;22.70;99.90
41722;DHT22;27407;24.142;-110.310;2023-06-04T04:50:58;22.50;99.90
41722;DHT22;27407;24.142;-110.310;2023-06-04T04:53:25;22.60;99.90
41722;DHT22;27407;24.142;-110.310;2023-06-04T04:55:52;22.30;99.90
41722;DHT22;27407;24.142;-110.310;2023-06-04T04:58:18;22.20;99.90
41722;DHT22;27407;24.142;-110.310;2023-06-04T05:00:45;22.30;99.90
41722;DHT22;27407;24.142;-110.310;2023-06-04T05:03:14;22.40;99.90
41722;DHT22;27407;24.142;-110.310;2023-06-04T05:05:40;22.20;99.90
41722;DHT22;27407;24.142;-110.310;2023-06-04T05:08:08;22.30;99.90
41722;DHT22;27407;24.142;-110.310;2023-06-04T05:10:37;22.40;99.90
41722;DHT22;27407;24.142;-110.310;2023-06-04T05:13:04;22.40;99.90
41722;DHT22;27407;24.142;-110.310;2023-06-04T05:15:33;22.20;99.90
41722;DHT22;27407;24.142;-110.310;2023-06-04T05:18:00;21.90;99.90
41722;DHT22;27407;24.142;-110.310;2023-06-04T05:20:28;21.90;99.90
41722;DHT22;27407;24.142;-110.310;2023-06-04T05:22:58;22.00;99.90
41722;DHT22;27407;24.142;-110.310;2023-06-04T05:25:24;21.90;99.90
41722;DHT22;27407;24.142;-110.310;2023-06-04T05:28:01;22.10;99.90
41722;DHT22;27407;24.142;-110.310;2023-06-04T05:30:29;22.10;99.90
41722;DHT22;27407;24.142;-110.310;2023-06-04T05:32:57;22.10;99.90
41722;DHT22;27407;24.142;-110.310;2023-06-04T05:35:25;22.00;99.90
41722;DHT22;27407;24.142;-110.310;2023-06-04T05:37:51;21.90;99.90
41722;DHT22;27407;24.142;-110.310;2023-06-04T05:40:21;21.90;99.90
41722;DHT22;27407;24.142;-110.310;2023-06-04T05:42:48;21.90;99.90
41722;DHT22;27407;24.142;-110.310;2023-06-04T05:45:15;22.00;99.90
41722;DHT22;27407;24.142;-110.310;2023-06-04T05:47:44;22.00;99.90
41722;DHT22;27407;24.142;-110.310;2023-06-04T05:50:11;22.10;99.90
41722;DHT22;27407;24.142;-110.310;2023-06-04T05:52:38;22.10;99.90
41722;DHT22;27407;24.142;-110.310;2023-06-04T05:55:06;22.00;99.90
41722;DHT22;27407;24.142;-110.310;2023-06-04T05:57:36;22.00;99.90
41722;DHT22;27407;24.142;-110.310;2023-06-04T06:00:03;22.10;99.90
41722;DHT22;27407;24.142;-110.310;2023-06-04T06:02:35;22.00;99.90
41722;DHT22;27407;24.142;-110.310;2023-06-04T06:05:01;22.00;99.90
41722;DHT22;27407;24.142;-110.310;2023-06-04T06:07:28;22.00;99.90
41722;DHT22;27407;24.142;-110.310;2023-06-04T06:09:55;22.00;99.90
41722;DHT22;27407;24.142;-110.310;2023-06-04T06:12:21;21.90;99.90
41722;DHT22;27407;24.142;-110.310;2023-06-04T06:14:51;21.90;99.90
41722;DHT22;27407;24.142;-110.310;2023-06-04T06:17:17;21.90;99.90
41722;DHT22;27407;24.142;-110.310;2023-06-04T06:19:44;21.80;99.90
41722;DHT22;27407;24.142;-110.310;2023-06-04T06:22:11;21.90;99.90
41722;DHT22;27407;24.142;-110.310;2023-06-04T06:24:39;21.70;99.90
41722;DHT22;27407;24.142;-110.310;2023-06-04T06:27:15;21.80;99.90
41722;DHT22;27407;24.142;-110.310;2023-06-04T06:29:42;21.80;99.90
41722;DHT22;27407;24.142;-110.310;2023-06-04T06:32:12;21.90;99.90
41722;DHT22;27407;24.142;-110.310;2023-06-04T06:34:39;21.90;99.90
41722;DHT22;27407;24.142;-110.310;2023-06-04T06:37:07;21.80;99.90
41722;DHT22;27407;24.142;-110.310;2023-06-04T06:39:33;21.80;99.90
41722;DHT22;27407;24.142;-110.310;2023-06-04T06:42:00;21.70;99.90
41722;DHT22;27407;24.142;-110.310;2023-06-04T06:44:29;21.40;99.90
41722;DHT22;27407;24.142;-110.310;2023-06-04T06:46:56;21.50;99.90
41722;DHT22;27407;24.142;-110.310;2023-06-04T06:49:25;21.50;99.90
41722;DHT22;27407;24.142;-110.310;2023-06-04T06:51:52;21.50;99.90
41722;DHT22;27407;24.142;-110.310;2023-06-04T06:54:19;21.40;99.90
41722;DHT22;27407;24.142;-110.310;2023-06-04T06:56:50;21.40;99.90
41722;DHT22;27407;24.142;-110.310;2023-06-04T06:59:17;21.30;99.90
41722;DHT22;27407;24.142;-110.310;2023-06-04T07:01:44;21.40;99.90
41722;DHT22;27407;24.142;-110.310;2023-06-04T07:04:10;21.40;99.90
41722;DHT22;27407;24.142;-110.310;2023-06-04T07:06:38;21.20;99.90
41722;DHT22;27407;24.142;-110.310;2023-06-04T07:09:04;21.10;99.90
41722;DHT22;27407;24.142;-110.310;2023-06-04T07:11:34;21.00;99.90
41722;DHT22;27407;24.142;-110.310;2023-06-04T07:14:01;21.00;99.90
41722;DHT22;27407;24.142;-110.310;2023-06-04T07:16:30;21.00;99.90
41722;DHT22;27407;24.142;-110.310;2023-06-04T07:18:57;21.10;99.90
41722;DHT22;27407;24.142;-110.310;2023-06-04T07:21:24;20.90;99.90
41722;DHT22;27407;24.142;-110.310;2023-06-04T07:23:58;20.80;99.90
41722;DHT22;27407;24.142;-110.310;2023-06-04T07:26:24;20.70;99.90
41722;DHT22;27407;24.142;-110.310;2023-06-04T07:28:55;20.70;99.90
41722;DHT22;27407;24.142;-110.310;2023-06-04T07:31:23;20.50;99.90
41722;DHT22;27407;24.142;-110.310;2023-06-04T07:33:49;20.50;99.90
41722;DHT22;27407;24.142;-110.310;2023-06-04T07:36:16;20.40;99.90
41722;DHT22;27407;24.142;-110.310;2023-06-04T07:38:43;20.40;99.90
41722;DHT22;27407;24.142;-110.310;2023-06-04T07:41:10;20.60;99.90
41722;DHT22;27407;24.142;-110.310;2023-06-04T07:43:37;20.60;99.90
41722;DHT22;27407;24.142;-110.310;2023-06-04T07:46:04;20.50;99.90
41722;DHT22;27407;24.142;-110.310;2023-06-04T07:48:31;20.40;99.90
41722;DHT22;27407;24.142;-110.310;2023-06-04T07:50:59;20.40;99.90
41722;DHT22;27407;24.142;-110.310;2023-06-04T07:53:26;20.50;99.90
41722;DHT22;27407;24.142;-110.310;2023-06-04T07:55:54;20.40;99.90
41722;DHT22;27407;24.142;-110.310;2023-06-04T07:58:21;20.40;99.90
41722;DHT22;27407;24.142;-110.310;2023-06-04T08:00:48;20.30;99.90
41722;DHT22;27407;24.142;-110.310;2023-06-04T08:03:15;20.40;99.90
41722;DHT22;27407;24.142;-110.310;2023-06-04T08:05:42;20.60;99.90
41722;DHT22;27407;24.142;-110.310;2023-06-04T08:08:08;20.60;99.90
41722;DHT22;27407;24.142;-110.310;2023-06-04T08:10:35;20.60;99.90
41722;DHT22;27407;24.142;-110.310;2023-06-04T08:13:02;20.50;99.90
41722;DHT22;27407;24.142;-110.310;2023-06-04T08:15:28;20.50;99.90
41722;DHT22;27407;24.142;-110.310;2023-06-04T08:17:55;20.40;99.90
41722;DHT22;27407;24.142;-110.310;2023-06-04T08:20:22;20.30;99.90
41722;DHT22;27407;24.142;-110.310;2023-06-04T08:22:49;20.30;99.90
41722;DHT22;27407;24.142;-110.310;2023-06-04T08:25:16;20.20;99.90
41722;DHT22;27407;24.142;-110.310;2023-06-04T08:27:43;20.20;99.90
41722;DHT22;27407;24.142;-110.310;2023-06-04T08:30:10;20.10;99.90
41722;DHT22;27407;24.142;-110.310;2023-06-04T08:32:37;20.20;99.90
41722;DHT22;27407;24.142;-110.310;2023-06-04T08:35:04;20.30;99.90
41722;DHT22;27407;24.142;-110.310;2023-06-04T08:37:31;20.30;99.90
41722;DHT22;27407;24.142;-110.310;2023-06-04T08:39:57;20.30;99.90
41722;DHT22;27407;24.142;-110.310;2023-06-04T08:42:30;20.30;99.90
41722;DHT22;27407;24.142;-110.310;2023-06-04T08:44:59;20.30;99.90
41722;DHT22;27407;24.142;-110.310;2023-06-04T08:47:26;20.10;99.90
41722;DHT22;27407;24.142;-110.310;2023-06-04T08:49:59;20.20;99.90
41722;DHT22;27407;24.142;-110.310;2023-06-04T08:52:27;20.30;99.90
41722;DHT22;27407;24.142;-110.310;2023-06-04T08:54:56;20.20;99.90
41722;DHT22;27407;24.142;-110.310;2023-06-04T08:57:24;20.00;99.90
41722;DHT22;27407;24.142;-110.310;2023-06-04T08:59:57;20.10;99.90
41722;DHT22;27407;24.142;-110.310;2023-06-04T09:02:27;20.20;99.90
41722;DHT22;27407;24.142;-110.310;2023-06-04T09:04:57;20.30;99.90
41722;DHT22;27407;24.142;-110.310;2023-06-04T09:07:28;20.30;99.90
41722;DHT22;27407;24.142;-110.310;2023-06-04T09:09:59;20.50;99.90
41722;DHT22;27407;24.142;-110.310;2023-06-04T09:12:26;20.60;99.90
41722;DHT22;27407;24.142;-110.310;2023-06-04T09:14:54;20.80;99.90
41722;DHT22;27407;24.142;-110.310;2023-06-04T09:17:24;20.90;99.90
41722;DHT22;27407;24.142;-110.310;2023-06-04T09:19:51;21.00;99.90
41722;DHT22;27407;24.142;-110.310;2023-06-04T09:22:18;21.10;99.90
41722;DHT22;27407;24.142;-110.310;2023-06-04T09:24:46;21.10;99.90
41722;DHT22;27407;24.142;-110.310;2023-06-04T09:27:18;21.00;99.90
41722;DHT22;27407;24.142;-110.310;2023-06-04T09:29:55;20.90;99.90
41722;DHT22;27407;24.142;-110.310;2023-06-04T09:32:25;21.00;99.90
41722;DHT22;27407;24.142;-110.310;2023-06-04T09:35:12;21.00;99.90
41722;DHT22;27407;24.142;-110.310;2023-06-04T09:37:41;21.10;99.90
41722;DHT22;27407;24.142;-110.310;2023-06-04T09:40:09;21.00;99.90
41722;DHT22;27407;24.142;-110.310;2023-06-04T09:42:43;21.20;99.90
41722;DHT22;27407;24.142;-110.310;2023-06-04T09:45:10;21.30;99.90
41722;DHT22;27407;24.142;-110.310;2023-06-04T09:47:44;21.30;99.90
41722;DHT22;27407;24.142;-110.310;2023-06-04T09:50:11;21.40;99.90
41722;DHT22;27407;24.142;-110.310;2023-06-04T09:52:38;21.40;99.90
41722;DHT22;27407;24.142;-110.310;2023-06-04T09:55:18;21.40;99.90
41722;DHT22;27407;24.142;-110.310;2023-06-04T09:57:50;21.50;99.90
41722;DHT22;27407;24.142;-110.310;2023-06-04T10:00:21;21.40;99.90
41722;DHT22;27407;24.142;-110.310;2023-06-04T10:02:50;21.60;99.90
41722;DHT22;27407;24.142;-110.310;2023-06-04T10:05:17;21.40;99.90
41722;DHT22;27407;24.142;-110.310;2023-06-04T10:07:50;21.40;99.90
41722;DHT22;27407;24.142;-110.310;2023-06-04T10:10:20;21.30;99.90
41722;DHT22;27407;24.142;-110.310;2023-06-04T10:12:52;21.20;99.90
41722;DHT22;27407;24.142;-110.310;2023-06-04T10:15:20;21.10;99.90
41722;DHT22;27407;24.142;-110.310;2023-06-04T10:17:47;21.00;99.90
41722;DHT22;27407;24.142;-110.310;2023-06-04T10:20:15;21.00;99.90
41722;DHT22;27407;24.142;-110.310;2023-06-04T10:22:43;21.00;99.90
41722;DHT22;27407;24.142;-110.310;2023-06-04T10:25:10;20.80;99.90
41722;DHT22;27407;24.142;-110.310;2023-06-04T10:27:37;20.80;99.90
41722;DHT22;27407;24.142;-110.310;2023-06-04T10:30:05;20.60;99.90
41722;DHT22;27407;24.142;-110.310;2023-06-04T10:32:32;20.20;99.90
41722;DHT22;27407;24.142;-110.310;2023-06-04T10:34:58;20.20;99.90
41722;DHT22;27407;24.142;-110.310;2023-06-04T10:37:30;20.00;99.90
41722;DHT22;27407;24.142;-110.310;2023-06-04T10:39:58;19.90;99.90
41722;DHT22;27407;24.142;-110.310;2023-06-04T10:42:25;19.80;99.90
41722;DHT22;27407;24.142;-110.310;2023-06-04T10:44:54;19.90;99.90
41722;DHT22;27407;24.142;-110.310;2023-06-04T10:47:25;19.70;99.90
41722;DHT22;27407;24.142;-110.310;2023-06-04T10:49:53;19.60;99.90
41722;DHT22;27407;24.142;-110.310;2023-06-04T10:52:21;19.50;99.90
41722;DHT22;27407;24.142;-110.310;2023-06-04T10:54:48;19.40;99.90
41722;DHT22;27407;24.142;-110.310;2023-06-04T10:57:16;19.60;99.90
41722;DHT22;27407;24.142;-110.310;2023-06-04T10:59:59;19.60;99.90
41722;DHT22;27407;24.142;-110.310;2023-06-04T11:02:27;19.60;99.90
41722;DHT22;27407;24.142;-110.310;2023-06-04T11:05:06;19.50;99.90
41722;DHT22;27407;24.142;-110.310;2023-06-04T11:07:45;19.40;99.90
41722;DHT22;27407;24.142;-110.310;2023-06-04T11:10:13;19.30;99.90
41722;DHT22;27407;24.142;-110.310;2023-06-04T11:12:47;19.20;99.90
41722;DHT22;27407;24.142;-110.310;2023-06-04T11:15:16;19.10;99.90
41722;DHT22;27407;24.142;-110.310;2023-06-04T11:17:53;19.20;99.90
41722;DHT22;27407;24.142;-110.310;2023-06-04T11:20:21;19.30;99.90
41722;DHT22;27407;24.142;-110.310;2023-06-04T11:22:58;19.30;99.90
41722;DHT22;27407;24.142;-110.310;2023-06-04T11:25:30;19.30;99.90
41722;DHT22;27407;24.142;-110.310;2023-06-04T11:28:00;19.30;99.90
41722;DHT22;27407;24.142;-110.310;2023-06-04T11:30:28;19.30;99.90
41722;DHT22;27407;24.142;-110.310;2023-06-04T11:33:05;19.20;99.90
41722;DHT22;27407;24.142;-110.310;2023-06-04T11:35:40;19.10;99.90
41722;DHT22;27407;24.142;-110.310;2023-06-04T11:38:07;19.00;99.90
41722;DHT22;27407;24.142;-110.310;2023-06-04T11:40:34;19.00;99.90
41722;DHT22;27407;24.142;-110.310;2023-06-04T11:43:02;19.00;99.90
41722;DHT22;27407;24.142;-110.310;2023-06-04T11:45:32;19.10;99.90
41722;DHT22;27407;24.142;-110.310;2023-06-04T11:47:58;19.10;99.90
41722;DHT22;27407;24.142;-110.310;2023-06-04T11:50:29;19.10;99.90
41722;DHT22;27407;24.142;-110.310;2023-06-04T11:52:55;19.00;99.90
41722;DHT22;27407;24.142;-110.310;2023-06-04T11:55:22;19.00;99.90
41722;DHT22;27407;24.142;-110.310;2023-06-04T11:57:50;19.10;99.90
41722;DHT22;27407;24.142;-110.310;2023-06-04T12:00:17;19.20;99.90
41722;DHT22;27407;24.142;-110.310;2023-06-04T12:05:17;19.20;99.90
41722;DHT22;27407;24.142;-110.310;2023-06-04T12:07:49;19.20;99.90
41722;DHT22;27407;24.142;-110.310;2023-06-04T12:10:21;19.30;99.90
41722;DHT22;27407;24.142;-110.310;2023-06-04T12:12:55;19.10;99.90
41722;DHT22;27407;24.142;-110.310;2023-06-04T12:15:22;19.10;99.90
41722;DHT22;27407;24.142;-110.310;2023-06-04T12:17:50;19.00;99.90
41722;DHT22;27407;24.142;-110.310;2023-06-04T12:20:17;19.00;99.90
41722;DHT22;27407;24.142;-110.310;2023-06-04T12:22:47;18.80;99.90
41722;DHT22;27407;24.142;-110.310;2023-06-04T12:25:24;18.80;99.90
41722;DHT22;27407;24.142;-110.310;2023-06-04T12:27:54;18.80;99.90
41722;DHT22;27407;24.142;-110.310;2023-06-04T12:30:22;18.80;99.90
41722;DHT22;27407;24.142;-110.310;2023-06-04T12:32:49;18.70;99.90
41722;DHT22;27407;24.142;-110.310;2023-06-04T12:35:19;18.70;99.90
41722;DHT22;27407;24.142;-110.310;2023-06-04T12:37:46;18.80;99.90
41722;DHT22;27407;24.142;-110.310;2023-06-04T12:40:12;18.80;99.90
41722;DHT22;27407;24.142;-110.310;2023-06-04T12:42:39;18.70;99.90
41722;DHT22;27407;24.142;-110.310;2023-06-04T12:45:06;18.70;99.90
41722;DHT22;27407;24.142;-110.310;2023-06-04T12:47:33;18.70;99.90
41722;DHT22;27407;24.142;-110.310;2023-06-04T12:50:00;18.70;99.90
41722;DHT22;27407;24.142;-110.310;2023-06-04T12:52:26;18.40;99.90
41722;DHT22;27407;24.142;-110.310;2023-06-04T12:54:53;18.50;99.90
41722;DHT22;27407;24.142;-110.310;2023-06-04T12:57:20;18.60;99.90
41722;DHT22;27407;24.142;-110.310;2023-06-04T12:59:47;18.60;99.90
41722;DHT22;27407;24.142;-110.310;2023-06-04T13:02:13;18.60;99.90
41722;DHT22;27407;24.142;-110.310;2023-06-04T13:04:40;18.40;99.90
41722;DHT22;27407;24.142;-110.310;2023-06-04T13:07:09;18.40;99.90
41722;DHT22;27407;24.142;-110.310;2023-06-04T13:09:35;18.30;99.90
41722;DHT22;27407;24.142;-110.310;2023-06-04T13:12:02;18.50;99.90
41722;DHT22;27407;24.142;-110.310;2023-06-04T13:14:29;18.50;99.90
41722;DHT22;27407;24.142;-110.310;2023-06-04T13:16:59;18.60;99.90
41722;DHT22;27407;24.142;-110.310;2023-06-04T13:19:26;18.70;99.90
41722;DHT22;27407;24.142;-110.310;2023-06-04T13:21:53;18.80;99.90
41722;DHT22;27407;24.142;-110.310;2023-06-04T13:24:19;18.90;99.90
41722;DHT22;27407;24.142;-110.310;2023-06-04T13:26:46;19.10;99.90
41722;DHT22;27407;24.142;-110.310;2023-06-04T13:29:13;19.30;99.90
41722;DHT22;27407;24.142;-110.310;2023-06-04T13:31:47;19.50;99.90
41722;DHT22;27407;24.142;-110.310;2023-06-04T13:34:14;19.50;99.90
41722;DHT22;27407;24.142;-110.310;2023-06-04T13:36:41;19.70;99.90
41722;DHT22;27407;24.142;-110.310;2023-06-04T13:39:07;19.80;99.90
41722;DHT22;27407;24.142;-110.310;2023-06-04T13:41:34;20.00;99.90
41722;DHT22;27407;24.142;-110.310;2023-06-04T13:44:01;20.20;99.90
41722;DHT22;27407;24.142;-110.310;2023-06-04T13:46:28;20.30;99.90
41722;DHT22;27407;24.142;-110.310;2023-06-04T13:48:54;20.50;99.90
41722;DHT22;27407;24.142;-110.310;2023-06-04T13:51:21;20.80;99.90
41722;DHT22;27407;24.142;-110.310;2023-06-04T13:53:47;21.00;99.90
41722;DHT22;27407;24.142;-110.310;2023-06-04T13:56:16;21.20;99.90
41722;DHT22;27407;24.142;-110.310;2023-06-04T13:58:42;21.50;99.90
41722;DHT22;27407;24.142;-110.310;2023-06-04T14:01:09;21.70;99.90
41722;DHT22;27407;24.142;-110.310;2023-06-04T14:03:36;21.90;99.90
41722;DHT22;27407;24.142;-110.310;2023-06-04T14:06:02;22.20;99.90
41722;DHT22;27407;24.142;-110.310;2023-06-04T14:08:29;22.50;99.90
41722;DHT22;27407;24.142;-110.310;2023-06-04T14:10:56;22.90;99.90
41722;DHT22;27407;24.142;-110.310;2023-06-04T14:13:23;23.10;99.90
41722;DHT22;27407;24.142;-110.310;2023-06-04T14:15:50;23.40;99.90
41722;DHT22;27407;24.142;-110.310;2023-06-04T14:18:17;23.40;99.90
41722;DHT22;27407;24.142;-110.310;2023-06-04T14:20:43;23.50;99.90
41722;DHT22;27407;24.142;-110.310;2023-06-04T14:23:10;23.70;99.90
41722;DHT22;27407;24.142;-110.310;2023-06-04T14:25:38;23.90;99.90
41722;DHT22;27407;24.142;-110.310;2023-06-04T14:28:05;23.90;99.90
41722;DHT22;27407;24.142;-110.310;2023-06-04T14:30:31;24.10;99.90
41722;DHT22;27407;24.142;-110.310;2023-06-04T14:32:58;24.30;99.90
41722;DHT22;27407;24.142;-110.310;2023-06-04T14:35:24;24.30;99.90
41722;DHT22;27407;24.142;-110.310;2023-06-04T14:37:51;24.40;99.90
41722;DHT22;27407;24.142;-110.310;2023-06-04T14:40:21;24.50;99.90
41722;DHT22;27407;24.142;-110.310;2023-06-04T14:42:47;24.70;99.90
41722;DHT22;27407;24.142;-110.310;2023-06-04T14:45:14;25.00;99.90
41722;DHT22;27407;24.142;-110.310;2023-06-04T14:47:41;25.20;99.90
41722;DHT22;27407;24.142;-110.310;2023-06-04T14:50:07;25.10;99.90
41722;DHT22;27407;24.142;-110.310;2023-06-04T14:52:34;25.30;99.90
41722;DHT22;27407;24.142;-110.310;2023-06-04T14:55:01;25.40;99.90
41722;DHT22;27407;24.142;-110.310;2023-06-04T14:57:27;25.50;99.90
41722;DHT22;27407;24.142;-110.310;2023-06-04T14:59:54;25.60;99.90
41722;DHT22;27407;24.142;-110.310;2023-06-04T15:02:21;25.70;99.90